Time;durP1;ratioP1;P1;durP2;ratioP2;P2;SDS_P1;SDS_P2;PMS_P1;PMS_P2;Temp;Humidity;BMP_temperature;BMP_pressure;BME280_temperature;BME280_humidity;BME280_pressure;Samples;Min_cycle;Max_cycle;Signal;HPM_P1;HPM_P2
2023/09/28 03:27:28;;;;;;;19.95;9.03;;;;;;;20.99;40.16;100906.14;1814325;79;28200;-79
2023/09/28 03:30:35;;;;;;;17.00;9.75;;;;;;;21.01;40.07;100907.30;1835702;77;21856;-79
2023/09/28 03:33:41;;;;;;;25.50;10.08;;;;;;;21.09;40.03;100907.00;1794934;80;21262;-79
2023/09/28 03:36:47;;;;;;;17.12;9.18;;;;;;;20.98;40.21;100905.81;1793346;80;21309;-79
2023/09/28 03:39:52;;;;;;;17.95;8.95;;;;;;;21.05;40.09;100912.16;1794696;80;21289;-79
2023/09/28 03:42:58;;;;;;;44.20;10.53;;;;;;;20.85;40.38;100908.76;1794615;80;21317;-79
2023/09/28 03:46:04;;;;;;;22.77;9.80;;;;;;;20.90;40.31;100922.27;1811903;78;21859;-79
2023/09/28 03:49:10;;;;;;;21.17;10.45;;;;;;;20.85;40.31;100922.66;1842097;78;21288;-79
2023/09/28 03:52:15;;;;;;;23.38;9.48;;;;;;;20.91;40.27;100924.52;1842402;78;21281;-79
2023/09/28 03:55:24;;;;;;;27.13;9.18;;;;;;;21.04;39.98;100925.77;1840508;78;21304;-79
2023/09/28 03:58:30;;;;;;;18.48;10.15;;;;;;;21.30;39.50;100920.97;1843051;78;21264;-79
2023/09/28 04:01:37;;;;;;;26.15;10.40;;;;;;;21.17;39.65;100922.84;1841032;78;21317;-79
2023/09/28 04:04:44;;;;;;;28.23;10.00;;;;;;;21.25;39.51;100923.60;1841753;78;21307;-79
2023/09/28 04:07:51;;;;;;;20.12;10.08;;;;;;;21.36;39.33;100918.67;1841758;78;21284;-79
2023/09/28 04:10:58;;;;;;;22.17;9.98;;;;;;;21.52;39.05;100925.02;1841752;78;21336;-80
2023/09/28 04:14:07;;;;;;;22.17;10.43;;;;;;;21.49;39.09;100923.23;1842090;78;21776;-79
2023/09/28 04:17:13;;;;;;;22.00;10.48;;;;;;;21.58;39.01;100926.86;1842750;77;21357;-79
2023/09/28 04:20:20;;;;;;;32.80;9.60;;;;;;;21.57;39.06;100922.92;1844226;77;21278;-79
2023/09/28 04:23:26;;;;;;;30.17;10.78;;;;;;;21.64;38.92;100921.77;1844178;77;21306;-79
2023/09/28 04:26:33;;;;;;;29.12;11.53;;;;;;;21.67;38.82;100921.27;1836781;76;21330;-79
2023/09/28 04:29:40;;;;;;;36.28;10.93;;;;;;;21.80;38.62;100920.80;1809963;79;21842;-79
2023/09/28 04:32:46;;;;;;;24.20;9.55;;;;;;;21.85;38.48;100936.25;1810084;79;21286;-79
2023/09/28 04:35:53;;;;;;;31.93;10.18;;;;;;;22.02;38.16;100935.03;1810136;79;21331;-78
2023/09/28 04:39:00;;;;;;;21.30;8.73;;;;;;;22.24;37.72;100934.83;1810086;79;21310;-78
2023/09/28 04:42:07;;;;;;;17.05;9.65;;;;;;;22.36;37.21;100940.45;1809129;79;21306;-81
2023/09/28 04:45:14;;;;;;;23.02;9.48;;;;;;;22.52;36.85;100940.28;1810237;79;21885;-78
2023/09/28 04:48:20;;;;;;;22.35;9.63;;;;;;;22.62;36.56;100933.57;1809974;79;21298;-78
2023/09/28 04:51:26;;;;;;;16.80;9.00;;;;;;;22.53;36.64;100934.46;1808259;79;21286;-78
2023/09/28 04:54:32;;;;;;;16.20;8.70;;;;;;;22.78;36.22;100934.81;1808561;79;21323;-78
2023/09/28 04:57:40;;;;;;;21.02;9.68;;;;;;;23.05;35.82;100934.63;1810228;78;21294;-78
2023/09/28 05:00:47;;;;;;;24.67;10.40;;;;;;;23.11;35.62;100932.28;1801453;79;21344;-78
2023/09/28 05:03:57;;;;;;;25.82;9.85;;;;;;;23.15;35.54;100941.02;1784474;80;21296;-78
2023/09/28 05:07:00;;;;;;;19.70;9.08;;;;;;;23.27;35.33;100932.62;1785193;80;21923;-78
2023/09/28 05:10:06;;;;;;;17.10;9.40;;;;;;;23.36;35.28;100940.91;1785779;80;21210;-78
2023/09/28 05:13:11;;;;;;;24.70;10.28;;;;;;;23.40;35.11;100946.31;1784809;80;21315;-79
2023/09/28 05:16:17;;;;;;;14.58;8.55;;;;;;;23.55;34.97;100937.41;1784588;79;21250;-79
2023/09/28 05:19:22;;;;;;;17.12;9.10;;;;;;;23.69;34.46;100947.23;1787278;80;21284;-79
2023/09/28 05:22:28;;;;;;;25.68;10.32;;;;;;;23.89;34.46;100939.81;1778787;80;21845;-79
2023/09/28 05:25:34;;;;;;;28.10;9.88;;;;;;;23.91;34.25;100941.83;1803574;79;21271;-79
2023/09/28 05:28:41;;;;;;;26.30;10.28;;;;;;;23.96;34.15;100944.72;1817302;78;21323;-79
2023/09/28 05:31:47;;;;;;;23.87;9.58;;;;;;;24.01;33.99;100942.57;1815599;78;21326;-79
2023/09/28 05:34:55;;;;;;;24.75;9.88;;;;;;;23.72;34.21;100938.37;1818817;78;21286;-79
2023/09/28 05:38:02;;;;;;;39.08;10.30;;;;;;;23.89;34.25;100949.03;1817484;78;21326;-79
2023/09/28 05:41:09;;;;;;;28.42;9.75;;;;;;;24.05;34.10;100940.97;1834500;78;21577;-79
2023/09/28 05:44:16;;;;;;;22.05;10.05;;;;;;;24.19;33.85;100946.00;1829104;78;21299;-79
2023/09/28 05:47:22;;;;;;;25.02;9.03;;;;;;;24.47;33.39;100948.48;1825084;76;21290;-79
2023/09/28 05:50:31;;;;;;;22.73;8.90;;;;;;;24.60;33.25;100950.08;1823047;78;21361;-79
2023/09/28 05:53:37;;;;;;;22.75;9.18;;;;;;;24.56;33.16;100948.37;1807084;78;21286;-78
2023/09/28 05:56:45;;;;;;;27.98;9.83;;;;;;;24.63;33.23;100950.42;1821333;78;21278;-78
2023/09/28 05:59:51;;;;;;;20.92;9.05;;;;;;;24.73;32.95;100961.78;1807360;77;21290;-79
2023/09/28 06:02:57;;;;;;;20.08;8.88;;;;;;;24.80;32.68;100965.83;1818511;77;21328;-79
2023/09/28 06:06:03;;;;;;;22.20;8.65;;;;;;;24.87;32.49;100962.84;1837911;76;22502;-79
2023/09/28 06:09:10;;;;;;;30.68;9.95;;;;;;;25.08;32.08;100963.50;1834625;76;21280;-79
2023/09/28 06:12:16;;;;;;;22.40;8.48;;;;;;;25.19;32.13;100969.53;1841630;77;21307;-79
2023/09/28 06:15:23;;;;;;;25.72;10.03;;;;;;;25.26;32.01;100972.69;1824037;77;21171;-79
2023/09/28 06:18:30;;;;;;;23.02;9.35;;;;;;;25.29;32.08;100966.03;1829472;76;21838;-79
2023/09/28 06:21:38;;;;;;;22.17;10.03;;;;;;;25.28;31.83;100981.14;1808958;76;21223;-78
2023/09/28 06:24:46;;;;;;;18.98;9.25;;;;;;;25.31;32.07;100967.16;1842176;76;21252;-78
2023/09/28 06:27:53;;;;;;;23.75;9.45;;;;;;;25.51;31.59;100975.02;1817986;76;21305;-78
2023/09/28 06:31:01;;;;;;;22.42;10.25;;;;;;;25.76;30.93;100968.92;1822076;76;21312;-79
2023/09/28 06:34:08;;;;;;;17.87;8.75;;;;;;;25.84;31.17;100968.48;1838056;76;21292;-79
2023/09/28 06:37:14;;;;;;;19.40;8.68;;;;;;;26.02;31.02;100967.26;1831856;77;21366;-80
2023/09/28 06:40:21;;;;;;;16.80;8.75;;;;;;;26.14;30.84;100970.20;1841261;76;21308;-80
2023/09/28 06:43:34;;;;;;;13.62;7.40;;;;;;;26.37;30.33;100963.44;1836318;76;21322;-79
2023/09/28 06:46:44;;;;;;;30.15;11.10;;;;;;;26.50;30.14;100972.86;1838363;76;22385;-81
2023/09/28 06:49:51;;;;;;;17.55;7.78;;;;;;;26.59;29.79;100962.00;1844220;76;21318;-79
2023/09/28 06:52:58;;;;;;;21.68;9.03;;;;;;;26.80;29.77;100972.83;1844721;77;21322;-79
2023/09/28 06:56:09;;;;;;;17.10;7.97;;;;;;;26.82;29.89;100971.14;1843023;76;21858;-78
2023/09/28 06:59:17;;;;;;;27.93;8.68;;;;;;;26.99;29.73;100967.64;1840535;77;21943;-79
2023/09/28 07:02:24;;;;;;;20.10;8.00;;;;;;;27.09;29.37;100974.76;1843631;76;21175;-79
2023/09/28 07:05:33;;;;;;;16.07;7.35;;;;;;;27.29;29.43;100976.00;1846041;76;21310;-79
2023/09/28 07:08:38;;;;;;;21.87;8.78;;;;;;;27.46;28.97;100975.27;1803094;76;605223;-79
2023/09/28 07:11:41;;;;;;;24.47;9.10;;;;;;;27.50;29.32;100977.83;1808707;77;21341;-79
2023/09/28 07:14:35;;;;;;;21.48;8.28;;;;;;;27.65;29.21;100967.22;1789845;78;21354;-77
2023/09/28 07:17:21;;;;;;;15.35;8.23;;;;;;;27.57;29.21;100961.58;1790047;78;21306;-78
2023/09/28 07:20:17;;;;;;;15.75;7.10;;;;;;;27.72;28.38;100966.45;1788208;78;21346;-78
2023/09/28 07:23:24;;;;;;;24.63;7.25;;;;;;;28.15;28.06;100965.74;1814494;77;21677;-78
2023/09/28 07:26:29;;;;;;;16.60;7.10;;;;;;;28.24;28.04;100968.30;1789828;78;22005;-79
2023/09/28 07:29:35;;;;;;;13.60;7.22;;;;;;;28.42;27.48;100966.92;1791672;78;21314;-79
2023/09/28 07:32:41;;;;;;;18.37;6.90;;;;;;;28.50;27.22;100960.19;1788040;79;21306;-79
2023/09/28 07:35:53;;;;;;;15.23;7.17;;;;;;;28.56;26.97;100976.54;1783978;79;21349;-79
2023/09/28 07:38:59;;;;;;;91.17;11.40;;;;;;;28.70;26.65;100966.41;1775779;79;21289;-79
2023/09/28 07:42:08;;;;;;;15.98;7.10;;;;;;;28.81;26.91;100953.73;1777287;79;21348;-80
2023/09/28 07:45:15;;;;;;;12.40;7.08;;;;;;;28.95;26.83;100954.31;1757030;81;21314;-79
2023/09/28 07:48:21;;;;;;;40.55;8.78;;;;;;;29.12;26.59;100961.03;1760997;80;21337;-80
2023/09/28 07:51:20;;;;;;;14.23;6.55;;;;;;;29.22;26.64;100952.58;1787416;79;21298;-78
2023/09/28 07:54:14;;;;;;;20.23;6.78;;;;;;;29.16;26.39;100953.70;1778515;79;21325;-78
2023/09/28 07:57:20;;;;;;;13.50;6.45;;;;;;;29.24;26.26;100948.91;1770805;79;21203;-79
2023/09/28 08:00:33;;;;;;;15.88;6.17;;;;;;;29.35;26.46;100951.69;1737598;80;21252;-80
2023/09/28 08:03:37;;;;;;;21.40;6.92;;;;;;;29.54;26.12;100956.97;1773805;79;21310;-80
2023/09/28 08:06:44;;;;;;;27.20;7.92;;;;;;;29.68;26.02;100950.19;1782671;79;22494;-80
2023/09/28 08:09:50;;;;;;;22.75;6.37;;;;;;;29.71;25.84;100954.69;1778100;79;21323;-79
2023/09/28 08:12:55;;;;;;;35.10;7.83;;;;;;;29.93;25.67;100941.63;1772510;79;21176;-79
2023/09/28 08:16:01;;;;;;;12.65;6.30;;;;;;;30.09;25.46;100942.37;1748013;80;21211;-79
2023/09/28 08:19:07;;;;;;;15.65;5.78;;;;;;;30.04;25.30;100933.37;1759884;80;21321;-80
2023/09/28 08:22:12;;;;;;;12.40;6.62;;;;;;;30.24;25.36;100942.86;1750017;80;21227;-80
2023/09/28 08:25:19;;;;;;;14.18;6.25;;;;;;;30.26;25.20;100937.22;1776481;79;21302;-80
2023/09/28 08:28:26;;;;;;;18.73;7.40;;;;;;;30.45;24.75;100936.52;1757398;80;21227;-78
2023/09/28 08:31:32;;;;;;;28.50;6.40;;;;;;;30.55;24.82;100935.02;1781167;77;21294;-78
2023/09/28 08:34:40;;;;;;;13.45;6.37;;;;;;;30.54;24.63;100935.59;1805004;78;21314;-80
2023/09/28 08:37:46;;;;;;;50.03;7.95;;;;;;;30.47;24.87;100930.00;1788710;78;21454;-79
2023/09/28 08:40:52;;;;;;;32.80;7.15;;;;;;;30.55;24.62;100923.73;1767197;78;21199;-78
2023/09/28 08:43:55;;;;;;;20.62;6.05;;;;;;;30.69;24.39;100921.08;1790212;79;21194;-78
2023/09/28 08:47:08;;;;;;;37.53;6.17;;;;;;;30.75;24.42;100917.92;1788603;78;21310;-78
2023/09/28 08:50:14;;;;;;;14.60;5.40;;;;;;;30.95;24.30;100921.11;1785946;78;21321;-78
2023/09/28 08:53:20;;;;;;;19.77;5.47;;;;;;;31.07;23.52;100917.90;1789296;79;21928;-78
2023/09/28 08:56:27;;;;;;;16.70;5.70;;;;;;;31.25;23.88;100900.18;1785590;78;21319;-78
2023/09/28 08:59:35;;;;;;;14.50;5.15;;;;;;;31.13;23.57;100918.11;1790111;79;21348;-78
2023/09/28 09:02:41;;;;;;;15.90;5.87;;;;;;;31.33;23.31;100911.98;1798017;78;21292;-78
2023/09/28 09:05:50;;;;;;;11.00;4.30;;;;;;;31.25;23.48;100905.00;1805484;78;21620;-78
2023/09/28 09:08:55;;;;;;;13.43;4.00;;;;;;;31.24;22.60;100904.16;1804493;78;21272;-80
2023/09/28 09:12:03;;;;;;;11.10;3.95;;;;;;;31.40;22.13;100896.36;1754045;80;21294;-80
2023/09/28 09:15:13;;;;;;;15.98;4.03;;;;;;;31.51;22.32;100901.30;1804064;79;22385;-79
2023/09/28 09:18:38;;;;;;;14.73;4.25;;;;;;;31.59;22.04;100892.73;1761412;81;21200;-80
2023/09/28 09:25:03;;;;;;;15.50;4.17;;;;;;;31.51;22.35;100894.23;1792999;78;21150;-78
2023/09/28 09:28:14;;;;;;;17.10;3.52;;;;;;;31.67;22.45;100895.73;1789749;78;22326;-78
2023/09/28 09:31:19;;;;;;;8.85;3.75;;;;;;;31.74;21.15;100874.97;1790217;78;21270;-78
2023/09/28 09:34:29;;;;;;;11.35;3.98;;;;;;;31.90;21.92;100880.43;1793090;78;21333;-77
2023/09/28 09:37:35;;;;;;;7.47;3.58;;;;;;;31.86;22.15;100870.90;1796478;78;21320;-78
2023/09/28 09:40:40;;;;;;;15.15;4.17;;;;;;;31.97;21.84;100872.42;1777013;78;21171;-79
2023/09/28 09:43:49;;;;;;;11.95;3.40;;;;;;;32.06;21.98;100864.92;1793209;78;21274;-78
2023/09/28 09:47:02;;;;;;;19.55;3.80;;;;;;;32.10;21.75;100856.67;1795144;78;21259;-78
2023/09/28 09:50:08;;;;;;;9.00;3.02;;;;;;;32.45;21.17;100873.07;1800328;78;22281;-78
2023/09/28 09:53:15;;;;;;;7.10;3.25;;;;;;;32.40;20.33;100858.17;1796711;78;22596;-78
2023/09/28 09:56:22;;;;;;;13.45;3.67;;;;;;;32.35;20.71;100883.70;1803013;78;21312;-79
2023/09/28 09:59:29;;;;;;;16.75;3.62;;;;;;;32.22;20.86;100862.67;1788890;78;21666;-78
2023/09/28 10:02:37;;;;;;;;;;;;;;;32.30;20.63;100869.89;1802579;78;21310;-78
2023/09/28 10:05:43;;;;;;;16.95;3.83;;;;;;;32.38;20.69;100857.66;1797736;78;20361;-78
2023/09/28 10:08:49;;;;;;;13.25;3.80;;;;;;;32.25;20.96;100864.33;1755909;80;21287;-79
2023/09/28 10:11:57;;;;;;;21.73;3.98;;;;;;;32.36;20.52;100853.66;1755586;80;21322;-77
2023/09/28 10:15:03;;;;;;;7.50;3.02;;;;;;;32.60;20.38;100848.47;1801642;78;21824;-77
2023/09/28 10:18:09;;;;;;;9.45;3.50;;;;;;;32.73;20.19;100849.91;1783516;78;21306;-77
2023/09/28 10:21:14;;;;;;;9.15;3.22;;;;;;;32.70;20.46;100851.98;1784929;78;21314;-78
2023/09/28 10:24:22;;;;;;;8.65;3.62;;;;;;;32.74;20.57;100846.50;1801312;79;21312;-78
2023/09/28 10:27:27;;;;;;;13.85;3.80;;;;;;;32.70;21.18;100839.78;1762948;80;21251;-77
2023/09/28 10:30:33;;;;;;;48.73;6.17;;;;;;;32.52;21.23;100854.29;1797859;78;21284;-77
2023/09/28 10:33:40;;;;;;;5.42;3.22;;;;;;;32.58;21.20;100851.63;1814929;78;21294;-78
2023/09/28 10:36:38;;;;;;;9.83;3.42;;;;;;;32.51;20.88;100842.12;1820940;77;21236;-78
2023/09/28 10:39:38;;;;;;;14.33;3.40;;;;;;;32.42;21.12;100840.29;1792881;78;21290;-78
2023/09/28 10:42:46;;;;;;;12.05;3.47;;;;;;;32.48;21.23;100839.06;1769958;78;22514;-78
2023/09/28 10:45:51;;;;;;;10.30;2.90;;;;;;;32.48;21.23;100839.06;1726410;80;21286;-78
2023/09/28 10:48:58;;;;;;;6.45;3.42;;;;;;;32.63;20.49;100838.78;1744330;79;21325;-78
2023/09/28 10:52:05;;;;;;;7.60;3.10;;;;;;;32.81;20.20;100828.53;1787937;78;21275;-77
2023/09/28 10:55:12;;;;;;;17.82;3.50;;;;;;;32.86;20.09;100872.92;1754317;81;21310;-78
2023/09/28 10:58:19;;;;;;;15.75;3.60;;;;;;;32.93;20.13;100826.63;1790559;78;21301;-78
2023/09/28 11:01:24;;;;;;;28.00;3.70;;;;;;;32.74;20.46;100828.09;1791126;78;21325;-78
2023/09/28 11:04:30;;;;;;;10.35;4.37;;;;;;;32.87;20.28;100830.11;1766898;79;21336;-78
2023/09/28 11:07:38;;;;;;;13.48;3.75;;;;;;;32.95;20.23;100830.00;1794634;78;21325;-78
2023/09/28 11:10:44;;;;;;;33.33;5.17;;;;;;;32.85;20.57;100842.92;1823286;77;21346;-78
2023/09/28 11:13:50;;;;;;;20.90;4.30;;;;;;;32.91;20.81;100819.86;1790291;78;21330;-78
2023/09/28 11:17:01;;;;;;;19.62;4.37;;;;;;;32.85;20.78;100818.84;1763905;80;21300;-78
2023/09/28 11:20:07;;;;;;;14.07;3.47;;;;;;;32.84;20.98;100809.48;1785106;79;21313;-78
2023/09/28 11:23:17;;;;;;;7.42;3.05;;;;;;;32.84;20.50;100779.73;1787135;78;21299;-78
2023/09/28 11:26:16;;;;;;;13.58;3.25;;;;;;;32.81;20.66;100815.21;1756007;80;21345;-78
2023/09/28 11:29:08;;;;;;;27.58;4.33;;;;;;;32.89;20.66;100824.12;1756669;80;21272;-78
2023/09/28 11:32:17;;;;;;;16.30;3.52;;;;;;;32.80;20.70;100802.21;1789709;78;21310;-78
2023/09/28 11:35:26;;;;;;;89.80;8.93;;;;;;;32.86;20.55;100790.77;1782927;78;21334;-78
2023/09/28 11:38:32;;;;;;;25.25;4.17;;;;;;;32.95;20.74;100791.17;1791059;78;21321;-78
2023/09/28 11:41:37;;;;;;;12.07;3.62;;;;;;;33.02;20.84;100792.99;1786333;78;21302;-78
2023/09/28 11:44:45;;;;;;;15.45;3.50;;;;;;;32.96;20.51;100797.67;1815324;77;21298;-78
2023/09/28 11:47:55;;;;;;;14.55;3.42;;;;;;;32.95;20.44;100794.01;1787481;78;21314;-78
2023/09/28 11:51:03;;;;;;;8.40;3.20;;;;;;;32.87;20.39;100789.61;1796122;78;21358;-78
2023/09/28 11:54:20;;;;;;;23.87;3.95;;;;;;;32.94;20.27;100788.66;1787101;78;21877;-78
2023/09/28 11:57:25;;;;;;;71.05;8.25;;;;;;;33.15;19.99;100789.90;1788026;78;22609;-77
2023/09/28 12:00:31;;;;;;;42.35;5.00;;;;;;;33.28;19.99;100781.12;1759802;80;21365;-78
2023/09/28 12:03:38;;;;;;;12.47;4.15;;;;;;;33.41;19.98;100773.18;1797807;78;21274;-77
2023/09/28 12:06:46;;;;;;;13.70;3.22;;;;;;;33.50;19.57;100774.69;1791200;78;21849;-78
2023/09/28 12:09:52;;;;;;;11.30;3.70;;;;;;;33.27;19.87;100768.95;1786323;80;21306;-77
2023/09/28 12:13:00;;;;;;;10.98;3.70;;;;;;;33.36;19.84;100776.13;1787735;79;21252;-77
2023/09/28 12:16:10;;;;;;;8.35;3.65;;;;;;;33.30;19.68;100800.89;1787770;78;21310;-78
2023/09/28 12:19:13;;;;;;;11.83;3.65;;;;;;;33.41;19.69;100754.75;1785719;79;21286;-78
2023/09/28 12:22:19;;;;;;;13.53;3.75;;;;;;;33.54;19.53;100772.31;1780244;80;21310;-78
2023/09/28 12:25:41;;;;;;;13.75;3.37;;;;;;;33.60;19.58;100757.45;1791004;80;21306;-78
2023/09/28 12:28:36;;;;;;;;;;;;;;;33.55;19.63;100751.91;1786967;80;22421;-78
2023/09/28 12:31:42;;;;;;;60.05;6.97;;;;;;;33.54;19.26;100748.79;1802369;78;20318;-77
2023/09/28 12:34:48;;;;;;;11.65;3.60;;;;;;;33.64;19.09;100761.89;1812372;79;22020;-78
2023/09/28 12:37:54;;;;;;;16.75;3.65;;;;;;;33.63;19.23;100769.56;1796258;79;21306;-78
2023/09/28 12:41:00;;;;;;;20.50;3.77;;;;;;;33.42;19.59;100757.00;1796077;79;21300;-78
2023/09/28 12:44:13;;;;;;;26.20;4.00;;;;;;;33.61;19.32;100756.30;1761089;81;21327;-78
2023/09/28 12:47:16;;;;;;;14.10;3.40;;;;;;;33.55;19.23;100757.58;1759782;81;21336;-79
2023/09/28 12:50:22;;;;;;;17.37;3.37;;;;;;;33.46;19.07;100750.99;1763055;81;21349;-78
2023/09/28 12:53:29;;;;;;;45.63;5.97;;;;;;;33.40;18.93;100745.96;1794028;80;21345;-78
2023/09/28 12:56:35;;;;;;;14.90;3.00;;;;;;;33.43;18.95;100738.86;1804887;78;21325;-79
2023/09/28 12:59:42;;;;;;;7.45;2.67;;;;;;;33.39;18.93;100737.79;1813011;78;21332;-79
2023/09/28 13:02:47;;;;;;;7.95;3.33;;;;;;;33.39;19.05;100728.70;1815135;78;22609;-78
2023/09/28 13:05:54;;;;;;;34.25;4.53;;;;;;;33.22;19.63;100729.39;1794285;79;21352;-78
2023/09/28 13:09:04;;;;;;;31.62;4.80;;;;;;;33.36;19.47;100729.91;1784617;80;21318;-78
2023/09/28 13:12:08;;;;;;;12.80;3.42;;;;;;;33.30;19.02;100738.53;1795398;79;21321;-79
2023/09/28 13:15:16;;;;;;;15.88;3.87;;;;;;;33.09;18.94;100736.50;1814393;79;21319;-79
2023/09/28 13:18:23;;;;;;;11.28;3.72;;;;;;;33.02;18.85;100727.83;1813487;79;21316;-79
2023/09/28 13:21:29;;;;;;;7.92;3.15;;;;;;;32.72;19.25;100715.13;1812401;79;21332;-78
2023/09/28 13:24:37;;;;;;;15.63;3.40;;;;;;;32.76;19.24;100728.09;1813275;79;21339;-78
2023/09/28 13:27:43;;;;;;;24.92;4.15;;;;;;;32.90;19.02;100732.34;1813739;79;21300;-78
2023/09/28 13:30:53;;;;;;;7.87;2.70;;;;;;;32.94;19.09;100722.09;1813399;78;21308;-78
2023/09/28 13:34:01;;;;;;;10.38;3.00;;;;;;;32.98;18.83;100720.27;1812486;79;21536;-78
2023/09/28 13:37:06;;;;;;;12.30;3.90;;;;;;;32.93;18.94;100720.39;1808563;79;21862;-78
2023/09/28 13:40:33;;;;;;;9.08;2.85;;;;;;;32.97;19.17;100715.77;1805034;79;22671;-78
2023/09/28 13:43:25;;;;;;;17.12;3.60;;;;;;;32.88;19.42;100710.55;1805013;79;21895;-78
2023/09/28 13:46:30;;;;;;;8.60;3.47;;;;;;;32.93;19.43;100724.64;1811294;77;21881;-78
2023/09/28 13:49:30;;;;;;;35.83;4.22;;;;;;;32.85;19.54;100718.28;1816479;79;21326;-78
2023/09/28 13:52:37;;;;;;;19.77;3.45;;;;;;;32.77;19.38;100724.94;1791209;80;21349;-78
2023/09/28 13:55:42;;;;;;;10.88;3.02;;;;;;;32.74;19.38;100721.31;1815763;79;21892;-78
2023/09/28 13:58:49;;;;;;;10.23;3.25;;;;;;;32.78;19.36;100715.86;1791891;80;21317;-78
2023/09/28 14:01:57;;;;;;;16.90;4.22;;;;;;;32.74;19.66;100727.55;1815678;79;21373;-78
2023/09/28 14:05:04;;;;;;;12.07;3.65;;;;;;;32.76;19.84;100716.19;1788185;78;21892;-78
2023/09/28 14:08:11;;;;;;;10.00;2.80;;;;;;;32.76;19.73;100717.60;1791968;80;21313;-78
2023/09/28 14:11:21;;;;;;;9.75;3.30;;;;;;;32.59;19.70;100715.97;1788752;80;21651;-78
2023/09/28 14:14:26;;;;;;;26.93;4.20;;;;;;;32.68;19.62;100722.58;1791474;80;21317;-78
2023/09/28 14:17:33;;;;;;;23.40;4.10;;;;;;;32.56;19.86;100715.20;1817471;79;21877;-78
2023/09/28 14:20:39;;;;;;;15.15;3.90;;;;;;;32.47;20.02;100713.67;1790277;78;21277;-78
2023/09/28 14:23:45;;;;;;;13.72;4.08;;;;;;;32.43;20.19;100723.10;1791359;80;21281;-78
2023/09/28 14:26:51;;;;;;;29.95;4.00;;;;;;;32.28;20.33;100713.72;1791406;80;21608;-78
2023/09/28 14:29:57;;;;;;;51.68;5.42;;;;;;;32.20;20.51;100714.44;1789927;80;21262;-78
2023/09/28 14:33:03;;;;;;;32.20;4.87;;;;;;;32.30;20.54;100718.48;1768103;80;21956;-78
2023/09/28 14:36:11;;;;;;;55.88;5.65;;;;;;;32.48;20.24;100712.51;1757554;81;21365;-78
2023/09/28 14:39:20;;;;;;;67.60;6.97;;;;;;;32.46;20.25;100714.80;1756573;80;21357;-78
2023/09/28 14:42:27;;;;;;;39.63;5.72;;;;;;;32.30;20.48;100715.65;1758701;81;21325;-78
2023/09/28 14:45:34;;;;;;;36.95;4.97;;;;;;;32.15;20.73;100714.53;1779970;80;21348;-78
2023/09/28 14:48:42;;;;;;;17.05;3.87;;;;;;;32.06;20.91;100714.98;1809570;77;21317;-78
2023/09/28 14:51:47;;;;;;;9.25;3.87;;;;;;;32.02;21.01;100722.41;1762803;80;21360;-78
2023/09/28 14:54:54;;;;;;;9.13;3.62;;;;;;;32.00;21.18;100716.23;1808467;78;21252;-78
2023/09/28 14:57:59;;;;;;;8.38;3.45;;;;;;;31.96;21.35;100717.99;1819021;78;22509;-78
2023/09/28 15:00:58;;;;;;;9.23;3.95;;;;;;;31.97;21.44;100720.50;1785731;78;21392;-78
2023/09/28 15:03:50;;;;;;;10.25;4.42;;;;;;;31.86;21.61;100717.59;1815280;79;21853;-78
2023/09/28 15:06:37;;;;;;;20.43;3.92;;;;;;;31.76;21.79;100721.41;1801059;79;21892;-78
2023/09/28 15:09:29;;;;;;;12.28;4.37;;;;;;;31.67;21.88;100719.02;1790635;78;21249;-78
2023/09/28 15:12:34;;;;;;;20.20;5.80;;;;;;;31.69;21.93;100719.53;1790779;80;21259;-79
2023/09/28 15:15:40;;;;;;;13.43;4.40;;;;;;;31.56;22.12;100721.14;1781277;80;21274;-78
2023/09/28 15:18:46;;;;;;;9.65;5.00;;;;;;;31.42;22.27;100723.06;1817137;79;21266;-78
2023/09/28 15:21:52;;;;;;;15.18;5.40;;;;;;;31.34;22.54;100720.11;1792289;80;21283;-78
2023/09/28 15:24:58;;;;;;;15.93;5.62;;;;;;;31.17;22.75;100724.25;1817575;79;21863;-78
2023/09/28 15:28:03;;;;;;;15.40;5.80;;;;;;;31.17;22.80;100727.08;1791968;80;21278;-78
2023/09/28 15:31:10;;;;;;;14.60;5.90;;;;;;;30.97;23.00;100723.97;1817450;79;21263;-78
2023/09/28 15:34:18;;;;;;;13.85;5.60;;;;;;;30.81;23.18;100726.70;1792963;80;21573;-78
2023/09/28 15:37:23;;;;;;;14.78;5.22;;;;;;;30.62;23.41;100731.42;1815806;79;21326;-78
2023/09/28 15:40:30;;;;;;;12.45;4.90;;;;;;;30.48;23.62;100734.12;1783203;79;21346;-78
2023/09/28 15:43:36;;;;;;;13.08;5.22;;;;;;;30.39;23.70;100737.32;1780568;80;21373;-78
2023/09/28 15:46:42;;;;;;;21.68;5.78;;;;;;;30.14;23.87;100733.62;1758469;80;21315;-78
2023/09/28 15:49:48;;;;;;;10.20;5.03;;;;;;;29.97;24.09;100741.09;1781634;80;21306;-78
2023/09/28 15:52:55;;;;;;;18.80;6.08;;;;;;;29.77;24.35;100752.52;1782593;80;21354;-78
2023/09/28 15:56:00;;;;;;;11.08;5.83;;;;;;;29.64;24.70;100754.59;1783519;80;21691;-78
2023/09/28 15:59:07;;;;;;;19.50;5.75;;;;;;;29.49;25.00;100752.13;1783548;80;21912;-78
2023/09/28 16:02:13;;;;;;;21.85;5.85;;;;;;;29.29;25.28;100750.28;1782389;80;21992;-78
2023/09/28 16:05:19;;;;;;;13.95;5.53;;;;;;;29.01;25.81;100749.02;1783748;80;21904;-78
2023/09/28 16:08:26;;;;;;;18.90;5.78;;;;;;;28.89;26.11;100753.25;1783119;80;21737;-78
2023/09/28 16:11:33;;;;;;;15.53;5.78;;;;;;;28.75;26.39;100748.27;1783259;80;21334;-78
2023/09/28 16:14:40;;;;;;;13.40;5.97;;;;;;;28.64;26.71;100760.66;1783154;80;21893;-78
2023/09/28 16:17:51;;;;;;;16.57;7.10;;;;;;;28.68;27.01;100754.75;1782919;79;21313;-79
2023/09/28 16:20:58;;;;;;;26.27;7.10;;;;;;;28.60;27.35;100757.30;1795309;79;21881;-79
2023/09/28 16:24:04;;;;;;;19.07;7.53;;;;;;;28.57;27.47;100758.73;1744925;82;21956;-79
2023/09/28 16:27:09;;;;;;;27.10;9.40;;;;;;;28.49;27.65;100755.09;1745553;82;21333;-80
2023/09/28 16:30:16;;;;;;;24.30;10.25;;;;;;;28.31;27.91;100759.87;1761357;80;22719;-79
2023/09/28 16:33:20;;;;;;;22.35;9.65;;;;;;;28.22;28.10;100764.65;1781167;80;21302;-80
2023/09/28 16:36:26;;;;;;;18.30;9.15;;;;;;;28.01;28.33;100757.38;1781236;80;21315;-79
2023/09/28 16:39:32;;;;;;;19.10;9.65;;;;;;;27.88;28.48;100764.95;1760278;81;21889;-79
2023/09/28 16:42:40;;;;;;;29.10;9.60;;;;;;;27.64;28.84;100759.84;1728200;80;22014;-80
2023/09/28 16:45:50;;;;;;;43.17;10.32;;;;;;;27.51;28.99;100755.60;1757774;80;21330;-78
2023/09/28 16:48:59;;;;;;;25.40;8.68;;;;;;;27.38;29.12;100763.72;1755041;80;21855;-79
2023/09/28 16:52:09;;;;;;;23.85;9.75;;;;;;;27.28;29.35;100761.73;1766577;80;21309;-80
2023/09/28 16:55:11;;;;;;;21.95;9.40;;;;;;;27.20;29.41;100760.89;1764990;79;21326;-77
2023/09/28 16:58:21;;;;;;;25.32;10.00;;;;;;;27.10;29.55;100763.10;1792829;80;21257;-79
2023/09/28 17:01:26;;;;;;;21.68;9.30;;;;;;;27.10;29.63;100770.66;1762001;81;21633;-79
2023/09/28 17:04:33;;;;;;;28.45;9.25;;;;;;;27.06;29.71;100762.48;1767181;80;21288;-79
2023/09/28 17:07:40;;;;;;;25.68;8.65;;;;;;;26.98;29.88;100767.50;1780213;80;21282;-79
2023/09/28 17:10:51;;;;;;;16.42;7.65;;;;;;;26.92;29.86;100769.17;1763696;80;21266;-79
2023/09/28 17:13:57;;;;;;;18.80;7.25;;;;;;;26.90;29.81;100772.23;1756609;80;21316;-79
2023/09/28 17:17:13;;;;;;;18.65;8.73;;;;;;;26.80;30.00;100773.59;1784266;80;21337;-78
2023/09/28 17:20:23;;;;;;;18.48;7.80;;;;;;;26.69;30.18;100773.27;1762625;81;21308;-81
2023/09/28 17:23:30;;;;;;;22.20;7.22;;;;;;;26.58;30.41;100779.91;1764200;81;22532;-79
2023/09/28 17:26:35;;;;;;;15.63;8.40;;;;;;;26.57;30.42;100781.88;1764372;81;21935;-78
2023/09/28 17:29:43;;;;;;;24.07;9.05;;;;;;;26.55;30.62;100777.11;1774232;80;21290;-78
2023/09/28 17:32:49;;;;;;;14.75;9.20;;;;;;;26.54;30.73;100774.55;1796579;80;21325;-78
2023/09/28 17:35:55;;;;;;;31.77;10.53;;;;;;;26.38;31.02;100778.63;1796128;80;21321;-80
2023/09/28 17:39:02;;;;;;;21.70;9.85;;;;;;;26.45;31.00;100775.08;1795277;80;21325;-80
2023/09/28 17:42:08;;;;;;;15.60;9.40;;;;;;;26.44;31.09;100783.75;1806179;79;21302;-80
2023/09/28 17:45:19;;;;;;;15.35;8.45;;;;;;;26.36;31.19;100777.23;1800729;79;21314;-80